Hawarden, United Kingdom

5:34 AM BST on October 20, 2014 (GMT +0100)
Broughton, Flintshire | Change Station
CLOSE
Current Station
Personal Weather Station
Location: Broughton, WALES
Elevation: 92 ft
Nearby Weather Stations

Elev 92 ft 53.16 °N, 2.99 °W | Updated 1 second ago

Partly Cloudy
Partly Cloudy
53.8 °F
Feels Like 53.8 °F
N
2.0
Wind Variable Wind from North
Gusts 4.0 mph

Today
High -- | Low -- °F
--% Chance of Precip.
Yesterday
High -- | Low -- °F
Precip. -- in
7:47 AM 6:05 PM
Waning Crescent, 13% visible
Pressure 29.92 in
Visibility 6.2 miles
Clouds Few 4400 ft
Dew Point 54 °F
Humidity 99%
Rainfall 0.00 in
Snow Depth Not available.
UV 0 out of 12
Pollen Not available.
Air Quality Not available.
Flu Activity Not available.
METAR EGGP 200320Z 23010KT 9999 FEW044 12/09 Q1013

More Conditions Fewer Conditions

Pressure 29.92 in
Visibility 6.2 miles
Clouds Few 4400 ft
Dew Point 54 °F
Humidity 99%
Rainfall 0.00 in
Snow Depth Not available.
UV 0 out of 12
Pollen Not available.
Air Quality Not available.
Flu Activity Not available.
METAR EGGP 200320Z 23010KT 9999 FEW044 12/09 Q1013

More Conditions Fewer Conditions

10-Day Weather Forecast

Almanac

Astronomy

Oct. 20, 2014 Rise Set
Actual Time 7:47 AM BST 6:05 PM BST
Civil Twilight 7:11 AM BST 6:40 PM BST
Nautical Twilight 6:31 AM BST 7:20 PM BST
Astronomical Twilight 5:51 AM BST 8:00 PM BST
Moon 3:55 AM BST 4:43 PM BST
Length of Visible Light 11h 28m
Length of Day
10h 17m
Tomorrow will be 4m 2s shorter.
Waning Crescent, 13% of the Moon is Illuminated
Today
Waning Crescent
Oct 23
New
Oct 30
First Quarter
Nov 6
Full
Nov 14
Last Quarter

Yesterday's Extremes

Country Highs Country Lows

Community

WunderPhotos

Upload Photos

1,763,294 photos uploaded!

Nearby

Snow Depth

Not available.

Earthquake Activity

City Distance Mag. Time & Date
No recent earthquake activity has been reported nearby.
Minimum magnitude displayed is 2.5.

Coastal Water Temperatures

Place Temperature
No Stations Reporting

Nearby Weather Stations